メインページ
METAR-TAF:

METAR-TAF

空港 :

ナヒチェヴァン, アゼルバイジャン

緯度: 39-11-19N, 経度: 045-27-30E, 海抜: 873m

現時点の気象観測

当レポートは53分前の17:00(UTC)に作成
東/南東の風 4kt
気温 21°C
湿度 38%
気圧 1018 hPa
視程10km以上

METAR: UBBN 261700Z 11004KT 9999 NSC 21/06 Q1018 R14R/CLRD// NOSIG RMK MT OP QFE689

時間: 21:53 (17:53 UTC)

予報

当レポートは40分前の17:13(UTC)に作成
予報は26日の 18時(UTC)から 27日の 18時(UTC)まで有効
変向風 4kt
視程10km以上
高度5000ftの雲はほとんどない
高度10000ftの雲は散在している
26日の 18時(UTC)から 27日の 05時(UTC)まで一時的に
北東の風 10kt
27日の 07時(UTC)から 27日の 17時(UTC)まで一時的に
西/南西の風 8kt

TAF: UBBN 261713Z 2618/2718 VRB04KT 9999 FEW050 SCT100 TX28/2712Z TN14/2702Z TEMPO 2618/2705 05010KT TEMPO 2707/2717 24008KT

4,000以上の空港の気象観測と天気予報(METAR報とTAF報)

利用可能な観測所は地図上に黄色い丸と赤い丸で示す。

丸の上にカーソルを重ねると観測所名を参照できる。

次にクリックすると気象観測と天気予報を参照できる。

マップの切り替え:黒色「×」印の緑ボタンをクリックして拡大、「-」印の緑ボタンをクリックして縮小、緑色の三角印をクリックして隣りの地図に切り替え


METAR-TAF: